Time;durP1;ratioP1;P1;durP2;ratioP2;P2;SDS_P1;SDS_P2;PMS_P1;PMS_P2;Temp;Humidity;BMP_temperature;BMP_pressure;BME280_temperature;BME280_humidity;BME280_pressure;Samples;Min_cycle;Max_cycle;Signal;HPM_P1;HPM_P2
2021/01/14 00:00:38;;;;;;;52.03;29.90;;;26.30;2201.60;;;;;;5044963;22;20026;-77
2021/01/14 00:03:10;;;;;;;51.58;30.05;;;26.30;2201.60;;;;;;5039666;28;20038;-75
2021/01/14 00:05:35;;;;;;;48.33;28.97;;;26.30;2201.60;;;;;;5039988;28;20103;-74
2021/01/14 00:08:02;;;;;;;52.60;30.13;;;26.30;2201.60;;;;;;5018603;28;20014;-75
2021/01/14 00:10:28;;;;;;;48.80;27.57;;;26.30;2201.60;;;;;;5038634;28;20026;-74
2021/01/14 00:12:53;;;;;;;49.00;27.93;;;51.20;2227.20;;;;;;5022385;23;20034;-76
2021/01/14 00:15:19;;;;;;;48.73;28.13;;;26.30;2201.60;;;;;;5027768;28;20026;-75
2021/01/14 00:17:46;;;;;;;45.13;26.87;;;26.40;2201.60;;;;;;5017045;28;20014;-75
2021/01/14 00:20:14;;;;;;;47.20;26.20;;;26.40;2201.60;;;;;;5015957;28;20010;-75
2021/01/14 00:22:40;;;;;;;42.47;24.80;;;26.40;2201.60;;;;;;5012708;28;20078;-78
2021/01/14 00:25:20;;;;;;;43.20;25.30;;;26.40;2201.60;;;;;;4996547;28;20133;-75
2021/01/14 00:27:51;;;;;;;38.03;23.37;;;26.40;2201.60;;;;;;4996709;28;20036;-75
2021/01/14 00:30:55;;;;;;;40.60;23.97;;;26.40;2201.60;;;;;;4996726;28;20038;-74
2021/01/14 00:33:21;;;;;;;41.93;24.80;;;26.40;2201.60;;;;;;4994260;28;20031;-75
2021/01/14 00:35:47;;;;;;;44.23;25.47;;;26.40;2201.60;;;;;;4996078;28;20440;-74
2021/01/14 00:38:13;;;;;;;38.53;23.17;;;26.30;2201.60;;;;;;4997537;28;20043;-75
2021/01/14 00:40:39;;;;;;;37.33;22.73;;;26.30;2201.60;;;;;;4994275;28;20086;-79
2021/01/14 00:43:09;;;;;;;37.40;22.80;;;26.40;2201.60;;;;;;4993926;28;20011;-76
2021/01/14 00:45:36;;;;;;;39.80;23.50;;;26.40;2201.60;;;;;;4993039;28;20039;-81
2021/01/14 00:48:03;;;;;;;39.63;24.27;;;26.30;2201.60;;;;;;4997026;28;20011;-80
2021/01/14 00:50:29;;;;;;;40.90;24.43;;;26.30;2201.60;;;;;;4994501;28;20050;-78
2021/01/14 00:52:55;;;;;;;39.23;24.27;;;26.30;2201.60;;;;;;4991336;28;20029;-81
2021/01/14 00:55:22;;;;;;;38.97;24.00;;;26.40;2201.60;;;;;;4992641;28;20023;-80
2021/01/14 00:57:48;;;;;;;36.40;23.10;;;26.40;2201.60;;;;;;4990994;28;20035;-75
2021/01/14 01:00:19;;;;;;;41.80;23.83;;;26.40;2201.60;;;;;;4991067;28;20019;-79
2021/01/14 01:02:47;;;;;;;39.23;23.70;;;26.40;2201.60;;;;;;4990759;28;20022;-81
2021/01/14 01:05:15;;;;;;;38.13;23.43;;;26.30;2201.60;;;;;;4988552;28;20034;-75
2021/01/14 01:07:48;;;;;;;36.53;22.27;;;26.40;2201.60;;;;;;4978042;28;20383;-74
2021/01/14 01:10:14;;;;;;;39.25;23.35;;;26.30;2201.60;;;;;;4978892;28;20369;-74
2021/01/14 01:12:40;;;;;;;39.43;23.13;;;26.30;2201.60;;;;;;4977975;28;20051;-74
2021/01/14 01:15:07;;;;;;;38.13;23.17;;;26.30;2201.60;;;;;;4992910;28;20022;-75
2021/01/14 01:17:33;;;;;;;35.83;22.77;;;26.30;2201.60;;;;;;4999070;28;20472;-74
2021/01/14 01:19:59;;;;;;;42.80;24.90;;;26.30;2201.60;;;;;;4996618;28;20034;-74
2021/01/14 01:22:26;;;;;;;45.97;26.80;;;26.30;2201.60;;;;;;5012949;28;20018;-80
2021/01/14 01:24:54;;;;;;;50.57;28.50;;;26.30;2201.60;;;;;;5013800;28;20013;-74
2021/01/14 01:27:20;;;;;;;47.30;27.70;;;26.30;2201.60;;;;;;5014039;28;20034;-73
2021/01/14 01:29:46;;;;;;;44.63;28.20;;;26.20;2201.60;;;;;;5013099;28;20057;-76
2021/01/14 01:32:11;;;;;;;45.47;26.40;;;26.20;2201.60;;;;;;5014599;28;20037;-77
2021/01/14 01:34:37;;;;;;;38.93;24.47;;;26.20;2201.60;;;;;;5017725;28;20431;-73
2021/01/14 01:37:03;;;;;;;34.67;22.13;;;26.20;2201.60;;;;;;5002563;28;20025;-74
2021/01/14 01:39:29;;;;;;;34.27;20.73;;;26.10;2201.60;;;;;;4998024;28;20022;-73
2021/01/14 01:41:58;;;;;;;36.57;20.77;;;26.10;2201.60;;;;;;4999074;28;20468;-75
2021/01/14 01:44:25;;;;;;;42.40;23.60;;;26.00;2201.60;;;;;;4997254;28;20031;-73
2021/01/14 01:46:55;;;;;;;36.83;22.83;;;26.00;2201.60;;;;;;4997475;28;20491;-74
2021/01/14 01:49:21;;;;;;;37.73;22.80;;;26.00;2201.60;;;;;;4994093;28;20034;-74
2021/01/14 01:51:50;;;;;;;42.60;22.73;;;26.00;2201.60;;;;;;4994683;28;20027;-73
2021/01/14 01:55:09;;;;;;;42.30;23.70;;;26.00;2201.60;;;;;;4995423;28;20106;-73
2021/01/14 01:57:35;;;;;;;39.77;22.57;;;26.00;2201.60;;;;;;4995800;28;20487;-74
2021/01/14 02:00:01;;;;;;;36.77;24.13;;;25.90;2201.60;;;;;;4995752;28;20085;-74
2021/01/14 02:02:29;;;;;;;42.17;23.33;;;25.90;2201.60;;;;;;4994575;28;20487;-73
2021/01/14 02:04:57;;;;;;;42.43;23.53;;;25.90;2201.60;;;;;;4998337;28;20029;-77
2021/01/14 02:07:44;;;;;;;43.07;23.17;;;25.90;2201.60;;;;;;5003132;28;20041;-74
2021/01/14 02:10:34;;;;;;;40.37;23.10;;;25.90;2201.60;;;;;;5003359;28;20069;-74
2021/01/14 02:13:25;;;;;;;43.30;23.13;;;25.80;2201.60;;;;;;5010978;28;20106;-73
2021/01/14 02:15:52;;;;;;;41.63;21.63;;;25.80;2201.60;;;;;;5011317;28;20091;-79
2021/01/14 02:18:20;;;;;;;42.37;21.97;;;25.70;2201.60;;;;;;5012050;28;20025;-76
2021/01/14 02:20:58;;;;;;;37.97;21.73;;;25.70;2201.60;;;;;;5011374;28;20018;-79
2021/01/14 02:23:32;;;;;;;38.63;21.40;;;25.70;2201.60;;;;;;5008625;28;20057;-77
2021/01/14 02:26:15;;;;;;;44.30;22.93;;;25.60;2201.60;;;;;;5003648;28;20070;-74
2021/01/14 02:28:44;;;;;;;36.53;19.57;;;25.60;2201.60;;;;;;5006594;28;20090;-73
2021/01/14 02:31:11;;;;;;;37.80;20.73;;;25.60;2201.60;;;;;;5003508;28;20090;-73
2021/01/14 02:33:37;;;;;;;35.97;19.43;;;25.70;2201.60;;;;;;5003224;28;20035;-73
2021/01/14 02:36:04;;;;;;;38.57;18.83;;;25.70;2201.60;;;;;;5007087;28;20054;-79
2021/01/14 02:38:30;;;;;;;32.53;17.70;;;25.70;2201.60;;;;;;5001792;28;20030;-73
2021/01/14 02:40:56;;;;;;;36.53;19.20;;;25.60;2201.60;;;;;;5003696;28;20026;-79
2021/01/14 02:43:22;;;;;;;31.63;17.73;;;25.70;2201.60;;;;;;5001473;28;20033;-73
2021/01/14 02:45:48;;;;;;;32.13;18.73;;;25.60;2201.60;;;;;;5003719;28;20042;-77
2021/01/14 02:48:19;;;;;;;32.43;16.50;;;25.60;2201.60;;;;;;5005135;28;20026;-80
2021/01/14 02:50:47;;;;;;;30.23;16.87;;;25.60;2201.60;;;;;;5009627;28;20391;-74
2021/01/14 02:53:15;;;;;;;32.23;18.17;;;25.60;2201.60;;;;;;5008858;28;20451;-73
2021/01/14 02:55:41;;;;;;;33.87;18.77;;;25.60;2201.60;;;;;;5003131;28;20042;-78
2021/01/14 02:58:07;;;;;;;35.97;18.73;;;25.60;2201.60;;;;;;5005217;28;20093;-73
2021/01/14 03:00:34;;;;;;;31.73;18.07;;;0.90;2201.60;;;;;;5000351;28;20521;-73
2021/01/14 03:03:00;;;;;;;32.63;18.90;;;0.90;2201.60;;;;;;5001265;28;20034;-73
2021/01/14 03:05:25;;;;;;;32.23;19.00;;;0.90;2201.60;;;;;;5002809;28;20551;-78
2021/01/14 03:07:51;;;;;;;33.30;18.23;;;0.90;2201.60;;;;;;5004699;28;20034;-74
2021/01/14 03:10:17;;;;;;;33.13;18.37;;;0.80;2201.60;;;;;;5001904;28;20027;-73
2021/01/14 03:12:43;;;;;;;34.63;17.77;;;0.80;2201.60;;;;;;4994942;28;20046;-73
2021/01/14 03:15:09;;;;;;;32.30;18.30;;;0.80;2201.60;;;;;;5000850;28;20026;-73
2021/01/14 03:17:36;;;;;;;35.33;17.67;;;0.80;2201.60;;;;;;5003128;28;20033;-80
2021/01/14 03:20:05;;;;;;;30.13;16.77;;;0.80;2201.60;;;;;;5008625;28;20018;-79
2021/01/14 03:22:30;;;;;;;30.03;16.97;;;0.80;2201.60;;;;;;5005380;28;20030;-73
2021/01/14 03:24:56;;;;;;;31.83;17.37;;;0.80;2201.60;;;;;;5003573;28;20053;-74
2021/01/14 03:27:22;;;;;;;28.40;14.93;;;0.80;2201.60;;;;;;5003951;28;20035;-79
2021/01/14 03:29:48;;;;;;;31.07;16.37;;;0.90;2201.60;;;;;;5002313;28;20053;-74
2021/01/14 03:32:14;;;;;;;26.60;14.33;;;0.90;2201.60;;;;;;5009718;28;20101;-80
2021/01/14 03:34:40;;;;;;;25.70;15.00;;;0.90;2201.60;;;;;;5003808;28;20027;-73
2021/01/14 03:37:06;;;;;;;36.70;15.10;;;0.90;2201.60;;;;;;5007172;28;20050;-74
2021/01/14 03:39:32;;;;;;;32.17;15.40;;;0.90;2201.60;;;;;;5001154;28;20030;-73
2021/01/14 03:41:58;;;;;;;26.37;14.17;;;25.60;2201.60;;;;;;5007783;28;20501;-73
2021/01/14 03:44:24;;;;;;;30.83;15.33;;;25.60;2201.60;;;;;;5008928;28;20018;-79
2021/01/14 03:46:51;;;;;;;24.87;13.93;;;25.60;2201.60;;;;;;5009544;28;20098;-73
2021/01/14 03:49:18;;;;;;;21.90;13.07;;;25.60;2201.60;;;;;;5008662;28;20471;-80
2021/01/14 03:51:44;;;;;;;23.97;12.23;;;25.60;2201.60;;;;;;5009467;28;20104;-79
2021/01/14 03:54:13;;;;;;;24.63;13.60;;;25.60;2201.60;;;;;;5009468;28;20364;-73
2021/01/14 03:56:40;;;;;;;25.10;13.47;;;25.60;2201.60;;;;;;5008058;28;20434;-73
2021/01/14 03:59:07;;;;;;;23.23;13.43;;;25.60;2201.60;;;;;;5009794;28;20379;-80
2021/01/14 04:01:33;;;;;;;26.73;13.13;;;25.60;2201.60;;;;;;5002235;28;20030;-73
2021/01/14 04:04:00;;;;;;;23.57;12.47;;;0.90;2201.60;;;;;;5001314;28;20030;-73
2021/01/14 04:06:33;;;;;;;26.87;14.43;;;25.60;2201.60;;;;;;5002122;28;20061;-80
2021/01/14 04:08:59;;;;;;;25.13;13.37;;;25.60;2201.60;;;;;;5002711;28;20073;-74
2021/01/14 04:11:26;;;;;;;32.13;15.67;;;25.60;2201.60;;;;;;5001963;28;20713;-73
2021/01/14 04:13:52;;;;;;;30.60;15.60;;;25.60;2201.60;;;;;;5002542;28;20051;-72
2021/01/14 04:16:18;;;;;;;23.77;13.67;;;25.60;2201.60;;;;;;5001683;28;20034;-73
2021/01/14 04:18:44;;;;;;;23.67;13.50;;;25.60;2201.60;;;;;;5001243;28;20037;-73
2021/01/14 04:21:13;;;;;;;25.33;14.00;;;25.70;2201.60;;;;;;5007950;28;20019;-78
2021/01/14 04:23:39;;;;;;;30.83;15.13;;;25.70;2201.60;;;;;;5006153;28;20029;-74
2021/01/14 04:26:05;;;;;;;25.13;14.37;;;25.70;2201.60;;;;;;5008728;28;20034;-80
2021/01/14 04:28:30;;;;;;;30.33;16.20;;;25.70;2201.60;;;;;;5006028;28;20065;-73
2021/01/14 04:30:56;;;;;;;26.50;13.57;;;25.80;2201.60;;;;;;5007230;28;20026;-79
2021/01/14 04:33:22;;;;;;;27.97;14.93;;;25.70;2201.60;;;;;;5007124;28;20022;-79
2021/01/14 04:35:55;;;;;;;28.77;14.97;;;25.80;2201.60;;;;;;5007425;28;20023;-75
2021/01/14 04:38:22;;;;;;;36.03;19.88;;;25.80;2201.60;;;;;;5008031;28;20104;-74
2021/01/14 04:40:58;;;;;;;41.23;20.87;;;25.70;2201.60;;;;;;5007665;28;20033;-79
2021/01/14 04:43:26;;;;;;;36.80;18.63;;;25.70;2201.60;;;;;;5009255;28;20026;-81
2021/01/14 04:45:55;;;;;;;29.67;16.40;;;25.80;2201.60;;;;;;5007786;28;20026;-81
2021/01/14 04:48:22;;;;;;;31.83;16.33;;;25.80;2201.60;;;;;;5008670;28;20014;-73
2021/01/14 04:50:49;;;;;;;48.17;23.23;;;25.80;2201.60;;;;;;5006023;28;20119;-81
2021/01/14 04:53:19;;;;;;;35.60;18.87;;;25.80;2201.60;;;;;;5006427;28;20033;-82
2021/01/14 04:55:55;;;;;;;29.93;16.00;;;25.80;2201.60;;;;;;5006575;28;20050;-80
2021/01/14 04:58:21;;;;;;;32.47;18.10;;;25.80;2201.60;;;;;;5008899;28;20022;-73
2021/01/14 05:00:49;;;;;;;35.37;19.47;;;25.80;2201.60;;;;;;5005799;28;20081;-73
2021/01/14 05:03:23;;;;;;;41.43;22.27;;;25.80;2201.60;;;;;;5008849;28;20030;-80
2021/01/14 05:05:50;;;;;;;;;;;25.80;2201.60;;;;;;5008165;28;20394;-76
2021/01/14 05:08:17;;;;;;;37.67;20.03;;;25.80;2201.60;;;;;;5007526;28;19912;-81
2021/01/14 05:10:44;;;;;;;43.37;21.97;;;25.70;2201.60;;;;;;5003629;28;20027;-73
2021/01/14 05:13:11;;;;;;;51.90;28.17;;;25.80;2201.60;;;;;;5002248;28;20045;-73
2021/01/14 05:15:38;;;;;;;35.70;19.23;;;25.60;2201.60;;;;;;5000690;28;20034;-74
2021/01/14 05:18:05;;;;;;;41.30;21.47;;;25.80;2201.60;;;;;;5003143;28;20112;-73
2021/01/14 05:20:30;;;;;;;39.57;22.10;;;25.80;2201.60;;;;;;5000213;28;20076;-72
2021/01/14 05:22:59;;;;;;;34.57;18.83;;;25.90;2201.60;;;;;;5006602;28;20010;-81
2021/01/14 05:25:25;;;;;;;29.73;17.50;;;25.90;2201.60;;;;;;5004446;28;20102;-80
2021/01/14 05:27:51;;;;;;;30.80;17.13;;;25.90;2201.60;;;;;;5006797;28;20122;-78
2021/01/14 05:30:18;;;;;;;36.37;19.13;;;25.90;2201.60;;;;;;5004913;28;20034;-81
2021/01/14 05:32:46;;;;;;;32.07;16.60;;;25.90;2201.60;;;;;;5009638;28;20021;-80
2021/01/14 05:35:26;;;;;;;28.47;14.80;;;25.90;2201.60;;;;;;5006919;28;20050;-78
2021/01/14 05:37:52;;;;;;;29.77;15.80;;;25.90;2176.00;;;;;;5005951;28;20027;-79
2021/01/14 05:40:24;;;;;;;35.43;18.73;;;25.90;2176.00;;;;;;5000880;28;20041;-75
2021/01/14 05:43:04;;;;;;;38.13;18.50;;;25.90;2201.60;;;;;;5000073;28;20048;-73
2021/01/14 05:45:31;;;;;;;39.00;19.00;;;25.90;2201.60;;;;;;5001925;28;20034;-73
2021/01/14 05:48:18;;;;;;;45.37;20.20;;;26.00;2201.60;;;;;;5000046;28;20026;-76
2021/01/14 05:50:46;;;;;;;42.47;18.70;;;25.90;2176.00;;;;;;5001656;28;20025;-80
2021/01/14 05:53:17;;;;;;;36.97;18.37;;;26.00;2201.60;;;;;;5004828;28;20029;-73
2021/01/14 05:55:45;;;;;;;38.67;18.60;;;26.00;2201.60;;;;;;4996961;28;20108;-77
2021/01/14 05:58:20;;;;;;;40.27;18.53;;;26.00;2201.60;;;;;;5001004;28;20498;-73
2021/01/14 06:00:48;;;;;;;44.27;22.60;;;26.00;2201.60;;;;;;5000436;28;20032;-78
2021/01/14 06:03:28;;;;;;;36.27;18.80;;;26.10;2201.60;;;;;;5003115;28;20026;-80
2021/01/14 06:05:56;;;;;;;49.17;26.17;;;26.00;2176.00;;;;;;5006397;28;20026;-80
2021/01/14 06:08:31;;;;;;;36.40;17.33;;;26.00;2176.00;;;;;;5006336;28;20057;-77
2021/01/14 06:10:58;;;;;;;25.73;13.63;;;26.00;2176.00;;;;;;5005596;28;20106;-80
2021/01/14 06:13:40;;;;;;;66.50;26.80;;;26.00;2176.00;;;;;;5006220;28;20050;-81
2021/01/14 06:16:06;;;;;;;39.10;18.90;;;26.00;2176.00;;;;;;5007297;28;20022;-80
2021/01/14 06:18:32;;;;;;;39.47;19.70;;;26.00;2176.00;;;;;;5009468;28;20030;-76
2021/01/14 06:20:58;;;;;;;45.30;20.50;;;26.00;2176.00;;;;;;5009351;28;20505;-73
2021/01/14 06:23:24;;;;;;;35.47;17.50;;;26.10;2201.60;;;;;;5005922;28;20034;-73
2021/01/14 06:25:54;;;;;;;33.00;17.20;;;26.10;2201.60;;;;;;4998029;28;20061;-78
2021/01/14 06:28:32;;;;;;;20.20;12.63;;;26.10;2150.40;;;;;;5001580;28;20019;-73
2021/01/14 06:31:03;;;;;;;17.63;10.37;;;26.10;2150.40;;;;;;5006773;28;20029;-73
2021/01/14 06:33:31;;;;;;;21.90;12.10;;;26.10;2124.80;;;;;;5007098;28;20027;-73
2021/01/14 06:36:31;;;;;;;23.80;12.67;;;26.10;2124.80;;;;;;5006064;28;20475;-80
2021/01/14 06:39:10;;;;;;;26.43;12.13;;;26.10;2150.40;;;;;;5005550;28;20089;-80
2021/01/14 06:41:39;;;;;;;28.53;14.00;;;26.10;2150.40;;;;;;5007710;28;20030;-80
2021/01/14 06:44:09;;;;;;;30.53;16.13;;;26.10;2176.00;;;;;;5005009;28;20022;-80
2021/01/14 06:46:36;;;;;;;32.53;17.40;;;26.20;2176.00;;;;;;5007215;28;20018;-80
2021/01/14 06:49:08;;;;;;;41.60;19.63;;;26.20;2176.00;;;;;;5008418;28;20105;-77
2021/01/14 06:51:57;;;;;;;44.00;18.23;;;26.30;2150.40;;;;;;5010618;28;20049;-80
2021/01/14 06:54:25;;;;;;;52.47;23.07;;;26.30;2176.00;;;;;;5011084;28;20026;-79
2021/01/14 06:57:14;;;;;;;83.57;31.77;;;26.30;2176.00;;;;;;5010388;28;20037;-79
2021/01/14 06:59:41;;;;;;;95.40;30.77;;;26.30;2201.60;;;;;;5010634;28;20097;-73
2021/01/14 07:02:07;;;;;;;58.93;22.43;;;26.30;2124.80;;;;;;5010231;28;20082;-73
2021/01/14 07:04:42;;;;;;;82.43;31.83;;;26.40;2124.80;;;;;;5010815;28;20023;-79
2021/01/14 07:07:23;;;;;;;123.00;46.00;;;26.40;2099.20;;;;;;5010008;28;20034;-79
2021/01/14 07:10:04;;;;;;;98.23;40.67;;;26.40;2124.80;;;;;;5011160;28;20058;-73
2021/01/14 07:12:36;;;;;;;97.10;39.77;;;26.40;2150.40;;;;;;5009694;28;20054;-73
2021/01/14 07:15:10;;;;;;;67.17;29.47;;;26.50;2150.40;;;;;;5008398;28;20010;-80
2021/01/14 07:17:39;;;;;;;40.73;19.17;;;51.20;2150.40;;;;;;5009908;28;20034;-80
2021/01/14 07:20:16;;;;;;;25.40;11.53;;;51.20;2201.60;;;;;;5009082;28;20025;-81
2021/01/14 07:22:53;;;;;;;19.13;10.57;;;51.20;2227.20;;;;;;5008720;28;20030;-78
2021/01/14 07:25:19;;;;;;;22.50;12.17;;;26.50;2201.60;;;;;;5009981;28;20031;-74
2021/01/14 07:27:48;;;;;;;42.17;18.27;;;26.50;2201.60;;;;;;5011594;28;20030;-81
2021/01/14 07:30:17;;;;;;;36.30;18.13;;;26.50;2201.60;;;;;;5010515;28;20015;-81
2021/01/14 07:32:53;;;;;;;24.67;14.27;;;26.50;2201.60;;;;;;5009982;28;20047;-77
2021/01/14 07:35:37;;;;;;;31.60;18.17;;;26.50;2201.60;;;;;;5011268;28;20023;-73
2021/01/14 07:38:04;;;;;;;45.17;23.73;;;51.20;2227.20;;;;;;5008516;28;20022;-80
2021/01/14 07:40:32;;;;;;;46.17;23.87;;;26.50;2201.60;;;;;;5009091;28;20066;-73
2021/01/14 07:42:59;;;;;;;46.63;25.17;;;26.50;2201.60;;;;;;5010128;28;20125;-80
2021/01/14 07:45:25;;;;;;;41.53;21.87;;;51.20;2227.20;;;;;;5001990;28;20029;-80
2021/01/14 07:47:51;;;;;;;46.57;23.23;;;26.50;2201.60;;;;;;5001957;28;20027;-73
2021/01/14 07:50:20;;;;;;;39.43;21.70;;;26.50;2201.60;;;;;;5002582;28;20033;-73
2021/01/14 07:52:48;;;;;;;41.17;20.37;;;26.50;2201.60;;;;;;5003288;28;20026;-81
2021/01/14 07:55:36;;;;;;;32.77;16.50;;;26.50;2176.00;;;;;;5002694;28;20019;-81
2021/01/14 07:58:10;;;;;;;30.13;16.10;;;26.50;2176.00;;;;;;5001862;28;20023;-73
2021/01/14 08:00:35;;;;;;;38.33;17.77;;;26.50;2150.40;;;;;;5001526;28;20033;-73
2021/01/14 08:03:04;;;;;;;35.27;17.33;;;26.40;2124.80;;;;;;5000980;28;20414;-73
2021/01/14 08:05:56;;;;;;;37.57;18.50;;;26.40;2124.80;;;;;;5006506;28;20474;-73
2021/01/14 08:08:32;;;;;;;27.90;17.17;;;26.40;2150.40;;;;;;5000464;28;20022;-73
2021/01/14 08:11:19;;;;;;;42.27;19.10;;;26.40;2150.40;;;;;;4999892;28;20014;-73
2021/01/14 08:14:06;;;;;;;59.90;25.80;;;26.40;2150.40;;;;;;5003212;28;20129;-73
2021/01/14 08:16:36;;;;;;;76.87;32.33;;;26.40;2176.00;;;;;;5000777;28;20090;-73
2021/01/14 08:19:27;;;;;;;59.90;29.63;;;26.40;2176.00;;;;;;5006745;28;20031;-76
2021/01/14 08:22:02;;;;;;;81.20;40.97;;;26.30;2201.60;;;;;;5009172;28;20018;-79
2021/01/14 08:24:40;;;;;;;100.20;48.23;;;26.40;2201.60;;;;;;5010119;28;20082;-81
2021/01/14 08:27:26;;;;;;;272.17;119.13;;;26.40;2201.60;;;;;;5013082;28;20034;-78
2021/01/14 08:30:08;;;;;;;284.13;123.10;;;26.50;2201.60;;;;;;5009311;28;20018;-77
2021/01/14 08:32:50;;;;;;;200.97;95.97;;;26.50;2201.60;;;;;;5011291;28;20010;-73
2021/01/14 08:35:16;;;;;;;79.13;41.00;;;51.20;2227.20;;;;;;5028366;28;20025;-79
2021/01/14 08:37:55;;;;;;;209.80;95.13;;;51.30;2227.20;;;;;;5027428;28;20030;-79
2021/01/14 08:40:23;;;;;;;200.50;87.07;;;51.40;2227.20;;;;;;5018531;28;20018;-74
2021/01/14 08:43:16;;;;;;;325.70;134.40;;;51.40;2227.20;;;;;;5015305;28;20037;-76
2021/01/14 08:45:44;;;;;;;244.27;106.73;;;51.40;2227.20;;;;;;5005927;28;20075;-73
2021/01/14 08:48:32;;;;;;;229.30;105.93;;;51.40;2227.20;;;;;;5026770;28;20013;-77
2021/01/14 08:50:58;;;;;;;128.63;62.33;;;51.40;2227.20;;;;;;5036155;28;20006;-78
2021/01/14 08:53:39;;;;;;;147.03;71.80;;;51.40;2227.20;;;;;;5034772;28;20037;-81
2021/01/14 08:56:25;;;;;;;109.40;56.80;;;51.40;2227.20;;;;;;5017422;28;20034;-81
2021/01/14 08:58:51;;;;;;;119.47;64.27;;;51.50;2227.20;;;;;;5017026;28;20057;-77
2021/01/14 09:01:37;;;;;;;101.50;58.93;;;51.60;2227.20;;;;;;5019582;28;20022;-73
2021/01/14 09:04:14;;;;;;;60.07;36.00;;;51.90;2227.20;;;;;;5030238;28;20003;-72
2021/01/14 09:06:42;;;;;;;35.47;21.77;;;51.90;2227.20;;;;;;5022583;22;20566;-74
2021/01/14 09:09:10;;;;;;;52.97;23.33;;;51.80;2227.20;;;;;;5027713;28;20387;-73
2021/01/14 09:11:55;;;;;;;55.20;28.43;;;51.70;2227.20;;;;;;5005041;28;20014;-73
2021/01/14 09:14:21;;;;;;;38.20;22.73;;;51.70;2227.20;;;;;;5014867;28;20010;-74
2021/01/14 09:16:58;;;;;;;40.13;22.40;;;51.80;2227.20;;;;;;5017725;28;20038;-74
2021/01/14 09:19:27;;;;;;;38.00;21.33;;;51.80;2227.20;;;;;;5017989;28;20030;-76
2021/01/14 09:22:11;;;;;;;43.77;23.40;;;51.90;2227.20;;;;;;5020263;28;20066;-74
2021/01/14 09:24:37;;;;;;;36.53;19.87;;;52.10;2227.20;;;;;;5022751;22;20082;-76
2021/01/14 09:27:05;;;;;;;41.40;23.97;;;76.80;2227.20;;;;;;5012997;28;20045;-73
2021/01/14 09:29:31;;;;;;;63.93;33.97;;;76.80;2227.20;;;;;;5007518;28;20030;-73
2021/01/14 09:31:57;;;;;;;134.70;59.83;;;76.90;2227.20;;;;;;5001139;28;20106;-73
2021/01/14 09:34:23;;;;;;;164.70;73.33;;;77.00;2227.20;;;;;;5003704;28;20549;-73
2021/01/14 09:36:50;;;;;;;413.10;152.07;;;76.80;2227.20;;;;;;5003802;28;20066;-72
2021/01/14 09:39:17;;;;;;;190.97;76.57;;;76.90;2227.20;;;;;;5005401;28;20050;-74
2021/01/14 09:41:43;;;;;;;219.93;90.10;;;76.90;2227.20;;;;;;5004865;28;20102;-73
2021/01/14 09:44:13;;;;;;;172.17;72.10;;;76.80;2227.20;;;;;;5004505;28;20022;-75
2021/01/14 09:46:41;;;;;;;109.70;58.73;;;52.10;2227.20;;;;;;4986896;28;20038;-74
2021/01/14 09:49:09;;;;;;;182.17;102.87;;;52.00;2227.20;;;;;;5006312;28;20022;-73
2021/01/14 09:51:36;;;;;;;149.57;58.03;;;52.10;2227.20;;;;;;5002531;28;20034;-73
2021/01/14 09:54:21;;;;;;;74.30;42.03;;;77.00;2227.20;;;;;;5005467;28;20019;-74
2021/01/14 09:57:02;;;;;;;46.90;29.03;;;77.40;2201.60;;;;;;4994820;28;20118;-77
2021/01/14 09:59:50;;;;;;;40.90;24.33;;;77.50;2227.20;;;;;;5013312;28;20495;-79
2021/01/14 10:02:27;;;;;;;39.23;22.93;;;77.70;2176.00;;;;;;5005699;28;20078;-81
2021/01/14 10:05:06;;;;;;;33.17;21.07;;;179.50;1817.60;;;;;;4994603;28;20125;-85
2021/01/14 10:07:35;;;;;;;27.30;17.77;;;281.70;1433.60;;;;;;4994276;28;20030;-84
2021/01/14 10:10:01;;;;;;;31.20;19.40;;;307.70;1254.40;;;;;;4994201;28;20109;-78
2021/01/14 10:12:32;;;;;;;31.07;17.07;;;230.80;1459.20;;;;;;4993912;28;20077;-86
2021/01/14 10:15:16;;;;;;;32.97;20.10;;;180.10;1638.40;;;;;;5011319;28;20113;-84
2021/01/14 10:17:42;;;;;;;32.75;20.52;;;179.60;1689.60;;;;;;5013617;28;20367;-72
2021/01/14 10:20:12;;;;;;;38.23;22.47;;;153.90;1817.60;;;;;;5013624;28;20451;-72
2021/01/14 10:22:51;;;;;;;52.17;25.93;;;128.80;1920.00;;;;;;5013595;28;20029;-72
2021/01/14 10:25:18;;;;;;;44.10;25.83;;;128.40;1945.60;;;;;;5014771;28;20100;-86
2021/01/14 10:28:00;;;;;;;52.63;34.77;;;128.50;1971.20;;;;;;5017506;28;20033;-72
2021/01/14 10:30:27;;;;;;;91.80;60.27;;;153.60;1894.40;;;;;;5017555;28;20026;-73
2021/01/14 10:33:04;;;;;;;146.33;87.63;;;153.90;1894.40;;;;;;5017393;28;20518;-86
2021/01/14 10:35:31;;;;;;;173.07;50.97;;;154.00;1868.80;;;;;;5017420;28;20022;-86
2021/01/14 10:38:14;;;;;;;51.53;28.23;;;154.10;1868.80;;;;;;5017297;28;20479;-73
2021/01/14 10:40:42;;;;;;;40.87;21.87;;;153.80;1868.80;;;;;;5017236;28;20018;-86
2021/01/14 10:43:14;;;;;;;37.10;20.53;;;128.70;1920.00;;;;;;5017119;28;20024;-83
2021/01/14 10:45:41;;;;;;;34.30;18.97;;;128.40;1971.20;;;;;;5017126;28;20033;-73
2021/01/14 10:48:13;;;;;;;28.43;16.77;;;128.00;2022.40;;;;;;5017238;28;20026;-85
2021/01/14 10:50:48;;;;;;;35.93;18.13;;;103.20;1996.80;;;;;;5017263;28;20030;-86
2021/01/14 10:53:43;;;;;;;30.90;15.17;;;103.10;1996.80;;;;;;5019242;28;20097;-77
2021/01/14 10:56:11;;;;;;;22.10;14.10;;;103.00;1971.20;;;;;;5006989;28;20391;-82
2021/01/14 10:58:39;;;;;;;21.50;11.57;;;102.80;1945.60;;;;;;5023678;28;20018;-84
2021/01/14 11:01:15;;;;;;;19.50;11.90;;;102.70;1971.20;;;;;;5022801;28;20108;-75
2021/01/14 11:03:42;;;;;;;18.30;9.30;;;102.80;1945.60;;;;;;5004601;28;20390;-77
2021/01/14 11:06:08;;;;;;;19.83;10.00;;;103.10;1894.40;;;;;;5011571;28;20026;-81
2021/01/14 11:08:42;;;;;;;24.03;14.03;;;128.00;1894.40;;;;;;5020384;28;20054;-83
2021/01/14 11:11:17;;;;;;;25.03;14.73;;;103.00;1868.80;;;;;;5007723;28;20442;-76
2021/01/14 11:13:52;;;;;;;;;;;102.80;1894.40;;;;;;5001671;28;20068;-80
2021/01/14 11:16:25;;;;;;;34.87;12.67;;;102.80;1894.40;;;;;;4998251;28;20428;-79
2021/01/14 11:18:53;;;;;;;29.63;17.20;;;102.80;1868.80;;;;;;5018514;28;20501;-74
2021/01/14 11:21:28;;;;;;;30.37;16.47;;;128.00;1843.20;;;;;;5005876;28;20030;-78
2021/01/14 11:23:58;;;;;;;37.90;17.87;;;128.60;1766.40;;;;;;5019516;28;20057;-72
2021/01/14 11:26:24;;;;;;;24.90;13.50;;;153.70;1715.20;;;;;;5019855;28;20030;-75
2021/01/14 11:28:51;;;;;;;34.43;16.60;;;154.20;1689.60;;;;;;5016462;28;20026;-84
2021/01/14 11:31:22;;;;;;;57.20;40.30;;;179.90;1587.20;;;;;;4998952;28;20423;-84
2021/01/14 11:33:49;;;;;;;88.13;49.40;;;179.60;1612.80;;;;;;4998664;28;20076;-86
2021/01/14 11:36:18;;;;;;;125.43;80.10;;;154.40;1664.00;;;;;;5015880;28;20049;-84
2021/01/14 11:38:44;;;;;;;17.87;9.50;;;154.10;1689.60;;;;;;5016171;28;20029;-85
2021/01/14 11:41:10;;;;;;;10.23;6.87;;;153.60;1740.80;;;;;;5015996;28;20030;-85
2021/01/14 11:43:37;;;;;;;22.77;15.33;;;128.40;1817.60;;;;;;5014897;28;20022;-74
2021/01/14 11:46:03;;;;;;;20.77;9.33;;;103.30;1817.60;;;;;;5015936;28;20034;-83
2021/01/14 11:48:29;;;;;;;20.57;10.07;;;103.10;1868.80;;;;;;4998857;28;20044;-83
2021/01/14 11:50:57;;;;;;;14.30;5.93;;;103.00;1843.20;;;;;;5019516;28;20048;-76
2021/01/14 11:53:23;;;;;;;16.20;7.90;;;102.90;1843.20;;;;;;5024648;28;20026;-74
2021/01/14 11:55:50;;;;;;;84.50;45.63;;;102.80;1817.60;;;;;;5020721;28;20041;-74
2021/01/14 11:58:18;;;;;;;114.03;60.37;;;102.70;1843.20;;;;;;5006841;28;20026;-79
2021/01/14 12:00:44;;;;;;;21.93;10.40;;;102.70;1868.80;;;;;;5023803;28;20456;-75
2021/01/14 12:03:10;;;;;;;22.27;10.27;;;102.60;1843.20;;;;;;5023811;28;20490;-74
2021/01/14 12:05:42;;;;;;;15.80;6.40;;;102.60;1868.80;;;;;;5020782;28;20025;-81
2021/01/14 12:08:08;;;;;;;12.70;5.27;;;102.50;1894.40;;;;;;5020526;28;20030;-74
2021/01/14 12:10:34;;;;;;;16.73;8.60;;;102.50;1894.40;;;;;;5028705;28;20071;-74
2021/01/14 12:13:00;;;;;;;16.97;9.53;;;102.60;1894.40;;;;;;5026084;28;20025;-89
2021/01/14 12:15:26;;;;;;;14.37;6.50;;;102.70;1920.00;;;;;;5022165;28;20467;-74
2021/01/14 12:17:51;;;;;;;33.80;17.20;;;102.70;1894.40;;;;;;5018299;28;20026;-74
2021/01/14 12:20:17;;;;;;;31.57;13.67;;;102.60;1920.00;;;;;;5016063;28;20018;-90
2021/01/14 12:22:43;;;;;;;40.23;17.50;;;102.60;1920.00;;;;;;5016890;28;20034;-82